KHFF

Mackall AAF Airport

Camp Mackall, North Carolina, USA
METAR KHFF 241156Z AUTO 21006KT 9SM OVC005 17/16 A3023 RMK AO2 SLP251 T01670162 10167 20148 56003 $
Observed Flight Rules
Feb-24 @ 11:56 UTC (27 minutes ago) Instrument Flight Rules
Wind Visibility Clouds
210° at 6 knots 9 miles
  • Overcast at 500' AGL
Temperatures Readings
Current 17°C / 63°F
Dewpoint 16°C / 61°F
Humidity 94%
Altimeter 30.23" Hg
Pressure 1025.1 hPa
Elevation 115
METAR KHFF 241156Z AUTO 21006KT 9SM OVC005 17/16 A3023 RMK AO2 SLP251 T01670162 10167 20148 56003 $
Observed Flight Rules
Feb-24 @ 11:56 UTC
(27 minutes ago)
IFR
Wind Visibility
210° at 6 knots 9 miles
Clouds
  • Overcast at 500' AGL
Temperature Dewpoint
17°C / 63°F 16°C / 61°F
Humidity Altimeter Pressure
94% 30.23" Hg 1025.1 hPa